Time;durP1;ratioP1;P1;durP2;ratioP2;P2;SDS_P1;SDS_P2;PMS_P1;PMS_P2;Temp;Humidity;BMP_temperature;BMP_pressure;BME280_temperature;BME280_humidity;BME280_pressure;Samples;Min_cycle;Max_cycle;Signal;HPM_P1;HPM_P2
2024/01/22 00:02:11;;;;;;;15.98;5.70;;;10.00;99.90;;;;;;5034132;28;20033;-71
2024/01/22 00:04:37;;;;;;;13.63;5.55;;;10.00;99.90;;;;;;5035414;28;20025;-71
2024/01/22 00:07:03;;;;;;;8.35;4.97;;;10.10;99.90;;;;;;5035329;28;20044;-72
2024/01/22 00:09:28;;;;;;;13.35;6.85;;;10.10;99.90;;;;;;5034634;28;20705;-69
2024/01/22 00:11:54;;;;;;;12.80;5.53;;;10.10;99.90;;;;;;5035026;28;20413;-69
2024/01/22 00:14:19;;;;;;;11.02;5.95;;;10.10;99.90;;;;;;5034914;28;20033;-69
2024/01/22 00:16:46;;;;;;;11.88;6.30;;;10.10;99.90;;;;;;5035098;28;20355;-71
2024/01/22 00:19:11;;;;;;;14.38;6.47;;;10.20;99.90;;;;;;5034966;28;20041;-71
2024/01/22 00:21:42;;;;;;;8.45;4.90;;;10.20;99.90;;;;;;5034729;28;20076;-70
2024/01/22 00:24:08;;;;;;;12.07;6.03;;;10.20;99.90;;;;;;5034647;28;20031;-72
2024/01/22 00:26:34;;;;;;;11.15;5.82;;;10.20;99.90;;;;;;5034797;28;20029;-69
2024/01/22 00:28:59;;;;;;;12.65;6.53;;;10.20;99.90;;;;;;5035197;28;20037;-69
2024/01/22 00:31:25;;;;;;;15.15;7.25;;;10.20;99.90;;;;;;5034925;28;20026;-68
2024/01/22 00:33:50;;;;;;;12.07;5.63;;;10.20;99.90;;;;;;5034785;28;20021;-71
2024/01/22 00:36:16;;;;;;;14.00;6.40;;;10.20;99.90;;;;;;5034867;28;20037;-71
2024/01/22 00:38:42;;;;;;;11.02;6.13;;;10.20;99.90;;;;;;5034264;28;20034;-69
2024/01/22 00:41:08;;;;;;;11.35;5.03;;;10.20;99.90;;;;;;5034538;28;20030;-71
2024/01/22 00:43:34;;;;;;;54.70;30.13;;;10.30;99.90;;;;;;5034304;28;20108;-71
2024/01/22 00:46:03;;;;;;;16.40;6.20;;;10.40;99.90;;;;;;5034425;28;20044;-72
2024/01/22 00:48:28;;;;;;;9.93;4.95;;;10.40;99.90;;;;;;5034539;28;20025;-71
2024/01/22 00:50:54;;;;;;;12.85;6.57;;;10.50;99.90;;;;;;5034412;28;20025;-70
2024/01/22 00:53:20;;;;;;;10.93;5.43;;;10.50;99.90;;;;;;5034287;28;20397;-70
2024/01/22 00:55:45;;;;;;;10.68;5.50;;;10.60;99.90;;;;;;5033951;28;20444;-69
2024/01/22 00:58:11;;;;;;;12.20;6.07;;;10.60;99.90;;;;;;5034174;28;20080;-71
2024/01/22 01:00:36;;;;;;;12.40;6.25;;;10.50;99.90;;;;;;5034457;28;20029;-69
2024/01/22 01:03:02;;;;;;;11.02;5.68;;;10.50;99.90;;;;;;5033821;28;20030;-73
2024/01/22 01:05:28;;;;;;;11.98;6.35;;;10.40;99.90;;;;;;5032142;28;20036;-71
2024/01/22 01:07:53;;;;;;;12.90;6.68;;;10.40;99.90;;;;;;5033606;28;20029;-75
2024/01/22 01:10:19;;;;;;;12.02;5.47;;;10.30;99.90;;;;;;5033925;28;20050;-71
2024/01/22 01:12:44;;;;;;;10.23;6.30;;;10.20;99.90;;;;;;5033649;28;20049;-71
2024/01/22 01:15:10;;;;;;;11.32;5.85;;;10.20;99.90;;;;;;5032593;28;20033;-72
2024/01/22 01:17:36;;;;;;;12.50;6.40;;;10.20;99.90;;;;;;5033872;28;20030;-72
2024/01/22 01:20:03;;;;;;;15.70;7.20;;;10.10;99.90;;;;;;5034180;28;20083;-74
2024/01/22 01:22:31;;;;;;;16.17;6.65;;;10.10;99.90;;;;;;5032220;28;20132;-73
2024/01/22 01:24:57;;;;;;;11.85;5.88;;;10.10;99.90;;;;;;5033804;28;20030;-73
2024/01/22 01:27:22;;;;;;;10.98;5.65;;;10.10;99.90;;;;;;5034016;28;20125;-70
2024/01/22 01:29:48;;;;;;;11.45;5.82;;;10.00;99.90;;;;;;5033431;28;20030;-73
2024/01/22 01:32:13;;;;;;;12.73;6.82;;;10.00;99.90;;;;;;5033843;28;20029;-69
2024/01/22 01:34:39;;;;;;;9.63;6.00;;;10.00;99.90;;;;;;5033751;28;20063;-72
2024/01/22 01:37:05;;;;;;;12.00;6.40;;;10.00;99.90;;;;;;5033153;28;20039;-72
2024/01/22 01:39:30;;;;;;;11.07;6.00;;;10.00;99.90;;;;;;5033764;28;20061;-74
2024/01/22 01:41:56;;;;;;;13.35;6.63;;;10.00;99.90;;;;;;5032350;28;20104;-72
2024/01/22 01:44:48;;;;;;;11.15;6.43;;;10.00;99.90;;;;;;5033097;28;20438;-75
2024/01/22 01:47:13;;;;;;;14.23;8.30;;;10.00;99.90;;;;;;5033866;28;20060;-74
2024/01/22 01:49:39;;;;;;;12.88;8.95;;;10.00;99.90;;;;;;5032807;28;20033;-72
2024/01/22 01:52:05;;;;;;;15.63;9.65;;;10.00;99.90;;;;;;5033251;28;20040;-72
2024/01/22 01:54:31;;;;;;;13.13;9.18;;;10.00;99.90;;;;;;5032936;28;20041;-74
2024/01/22 01:56:56;;;;;;;12.52;8.05;;;10.00;99.90;;;;;;5033164;28;20026;-71
2024/01/22 01:59:23;;;;;;;13.20;7.85;;;10.00;99.90;;;;;;5033123;28;20049;-72
2024/01/22 02:01:49;;;;;;;15.10;8.45;;;10.00;99.90;;;;;;5033142;28;20030;-73
2024/01/22 02:04:14;;;;;;;9.63;7.10;;;10.00;99.90;;;;;;5032846;28;20038;-70
2024/01/22 02:06:41;;;;;;;9.85;6.95;;;10.00;99.90;;;;;;5033078;28;20444;-73
2024/01/22 02:09:07;;;;;;;12.18;6.90;;;10.10;99.90;;;;;;5032102;28;20022;-75
2024/01/22 02:11:33;;;;;;;8.30;6.70;;;10.10;99.90;;;;;;5033234;28;20034;-71
2024/01/22 02:13:58;;;;;;;9.85;6.68;;;10.10;99.90;;;;;;5032900;28;20029;-74
2024/01/22 02:16:24;;;;;;;11.38;7.95;;;10.20;99.90;;;;;;5032908;28;20030;-73
2024/01/22 02:18:49;;;;;;;9.60;6.50;;;10.20;99.90;;;;;;5031393;28;20124;-71
2024/01/22 02:21:15;;;;;;;10.55;5.40;;;10.20;99.90;;;;;;5032653;28;20049;-72
2024/01/22 02:23:41;;;;;;;12.93;5.18;;;10.30;99.90;;;;;;5032400;28;20060;-71
2024/01/22 02:26:06;;;;;;;11.13;5.22;;;10.30;99.90;;;;;;5033094;28;20025;-71
2024/01/22 02:28:32;;;;;;;11.93;4.78;;;10.30;99.90;;;;;;5019393;28;20080;-73
2024/01/22 02:30:58;;;;;;;10.25;4.05;;;10.40;99.90;;;;;;5013000;28;20049;-70
2024/01/22 02:33:24;;;;;;;8.77;4.00;;;10.50;99.90;;;;;;5012723;28;20029;-73
2024/01/22 02:35:50;;;;;;;11.23;4.28;;;10.60;99.90;;;;;;5013134;28;20033;-71
2024/01/22 02:38:15;;;;;;;6.90;4.10;;;10.70;99.90;;;;;;5012858;28;20049;-74
2024/01/22 02:40:41;;;;;;;6.88;4.10;;;10.70;99.90;;;;;;5013090;28;20092;-72
2024/01/22 02:43:06;;;;;;;9.13;4.43;;;10.80;99.90;;;;;;5012871;28;20041;-70
2024/01/22 02:45:32;;;;;;;9.13;4.72;;;10.80;99.90;;;;;;5012950;28;20030;-71
2024/01/22 02:47:57;;;;;;;7.63;4.35;;;10.80;99.90;;;;;;5012608;28;20079;-74
2024/01/22 02:50:23;;;;;;;8.20;4.95;;;10.80;99.90;;;;;;5012970;28;20083;-74
2024/01/22 02:52:49;;;;;;;9.23;4.43;;;10.80;99.90;;;;;;5012582;28;20034;-71
2024/01/22 02:55:14;;;;;;;6.35;4.78;;;10.80;99.90;;;;;;5012812;28;20381;-71
2024/01/22 02:57:40;;;;;;;7.47;4.55;;;10.70;99.90;;;;;;5012631;28;20147;-73
2024/01/22 03:00:06;;;;;;;10.02;4.60;;;10.80;99.90;;;;;;5012720;28;20025;-71
2024/01/22 03:02:32;;;;;;;6.18;4.82;;;10.70;99.90;;;;;;5012632;28;20034;-72
2024/01/22 03:04:57;;;;;;;10.68;5.03;;;10.70;99.90;;;;;;5016602;28;20032;-69
2024/01/22 03:07:23;;;;;;;9.45;4.88;;;10.70;99.90;;;;;;5032222;28;20041;-72
2024/01/22 03:09:48;;;;;;;6.97;4.63;;;10.70;99.90;;;;;;5032010;28;20042;-72
2024/01/22 03:12:14;;;;;;;7.13;4.78;;;10.60;99.90;;;;;;5032405;28;20029;-72
2024/01/22 03:14:39;;;;;;;7.78;4.63;;;10.60;99.90;;;;;;5032647;28;20099;-72
2024/01/22 03:17:05;;;;;;;8.60;5.30;;;10.60;99.90;;;;;;5031971;28;20021;-72
2024/01/22 03:19:31;;;;;;;5.95;5.32;;;10.60;99.90;;;;;;5032102;28;20079;-73
2024/01/22 03:21:56;;;;;;;6.32;4.80;;;10.70;99.90;;;;;;5031926;28;20047;-71
2024/01/22 03:24:22;;;;;;;8.60;5.32;;;10.70;99.90;;;;;;5031923;28;20037;-74
2024/01/22 03:26:48;;;;;;;8.30;5.50;;;10.70;99.90;;;;;;5032228;28;20358;-74
2024/01/22 03:29:13;;;;;;;7.07;5.00;;;10.70;99.90;;;;;;5033726;28;20029;-71
2024/01/22 03:31:39;;;;;;;8.32;5.28;;;10.70;99.90;;;;;;5035418;28;20033;-71
2024/01/22 03:34:04;;;;;;;6.85;4.93;;;10.70;99.90;;;;;;5035887;28;20029;-70
2024/01/22 03:36:31;;;;;;;7.32;5.43;;;10.70;99.90;;;;;;5034540;28;20159;-72
2024/01/22 03:38:56;;;;;;;7.80;5.90;;;10.70;99.90;;;;;;5035848;28;20033;-73
2024/01/22 03:41:22;;;;;;;5.95;5.32;;;10.70;99.90;;;;;;5035442;28;20025;-72
2024/01/22 03:43:48;;;;;;;5.65;5.10;;;10.80;99.90;;;;;;5035615;28;20032;-71
2024/01/22 03:46:14;;;;;;;7.30;4.90;;;10.80;99.90;;;;;;5035358;28;20025;-70
2024/01/22 03:48:40;;;;;;;5.90;5.22;;;10.80;99.90;;;;;;5035600;28;20025;-72
2024/01/22 03:51:06;;;;;;;7.05;4.97;;;10.80;99.90;;;;;;5035544;28;20377;-73
2024/01/22 03:53:32;;;;;;;4.95;4.45;;;10.80;99.90;;;;;;5035468;28;20026;-72
2024/01/22 03:55:57;;;;;;;6.55;5.63;;;10.80;99.90;;;;;;5035479;28;20033;-70
2024/01/22 03:58:23;;;;;;;9.07;7.78;;;10.80;99.90;;;;;;5035068;28;20033;-71
2024/01/22 04:00:48;;;;;;;8.73;8.07;;;10.80;99.90;;;;;;5035098;28;20017;-71
2024/01/22 04:03:14;;;;;;;9.00;8.20;;;10.80;99.90;;;;;;5035535;28;20484;-72
2024/01/22 04:05:41;;;;;;;8.20;7.65;;;10.80;99.90;;;;;;5035626;28;20040;-71
2024/01/22 04:08:07;;;;;;;7.82;7.13;;;10.90;99.90;;;;;;5035280;28;20021;-70
2024/01/22 04:10:32;;;;;;;6.28;5.78;;;10.90;99.90;;;;;;5035172;28;20103;-72
2024/01/22 04:12:58;;;;;;;4.32;3.92;;;11.00;99.90;;;;;;5035473;28;20041;-70
2024/01/22 04:15:23;;;;;;;6.85;3.83;;;11.00;99.90;;;;;;5033553;28;20034;-70
2024/01/22 04:17:49;;;;;;;3.78;3.40;;;11.10;99.90;;;;;;5035058;28;20037;-69
2024/01/22 04:20:15;;;;;;;4.00;3.60;;;11.10;99.90;;;;;;5035215;28;20176;-69
2024/01/22 04:22:40;;;;;;;4.10;3.70;;;11.10;99.90;;;;;;5034716;28;20079;-71
2024/01/22 04:25:07;;;;;;;4.28;3.55;;;11.20;99.90;;;;;;5034893;28;20104;-72
2024/01/22 04:27:32;;;;;;;6.18;3.40;;;11.30;99.90;;;;;;5033620;28;20040;-70
2024/01/22 04:29:58;;;;;;;6.93;3.30;;;11.30;99.90;;;;;;5034592;28;20022;-70
2024/01/22 04:32:23;;;;;;;7.03;3.25;;;11.40;99.90;;;;;;5034586;28;20063;-71
2024/01/22 04:34:50;;;;;;;5.68;3.20;;;11.50;99.90;;;;;;5034835;28;20032;-71
2024/01/22 04:37:16;;;;;;;3.67;3.33;;;11.60;99.90;;;;;;5034624;28;20083;-72
2024/01/22 04:39:42;;;;;;;4.75;3.40;;;11.60;99.90;;;;;;5033339;28;20025;-73
2024/01/22 04:42:08;;;;;;;3.45;3.08;;;11.70;99.90;;;;;;5033613;28;20025;-69
2024/01/22 04:44:33;;;;;;;6.30;3.10;;;11.80;99.90;;;;;;5034408;28;20113;-71
2024/01/22 04:47:00;;;;;;;3.20;2.90;;;11.80;99.90;;;;;;5034572;28;20068;-71
2024/01/22 04:49:26;;;;;;;5.38;3.53;;;11.90;99.90;;;;;;5034568;28;20091;-74
2024/01/22 04:51:51;;;;;;;3.30;3.00;;;12.00;99.90;;;;;;5034709;28;20030;-72
2024/01/22 04:54:17;;;;;;;5.75;3.08;;;12.00;99.90;;;;;;5033095;28;20425;-69
2024/01/22 04:56:47;;;;;;;6.45;3.28;;;12.00;99.90;;;;;;5034565;28;20033;-70
2024/01/22 04:59:13;;;;;;;7.63;3.97;;;12.10;99.90;;;;;;5032591;28;20128;-70
2024/01/22 05:01:40;;;;;;;9.38;3.67;;;12.10;99.90;;;;;;5034286;28;20024;-73
2024/01/22 05:04:05;;;;;;;10.57;4.15;;;12.10;99.90;;;;;;5034453;28;20013;-73
2024/01/22 05:06:31;;;;;;;9.70;3.80;;;12.10;99.90;;;;;;5034064;28;20432;-73
2024/01/22 05:08:57;;;;;;;11.77;3.83;;;12.10;99.90;;;;;;5034335;28;20025;-73
2024/01/22 05:11:23;;;;;;;11.80;4.00;;;12.10;99.90;;;;;;5034368;28;20088;-72
2024/01/22 05:13:49;;;;;;;14.18;4.38;;;12.10;99.90;;;;;;5032677;28;20036;-72
2024/01/22 05:16:16;;;;;;;13.60;5.45;;;12.10;99.90;;;;;;5034174;28;20091;-70
2024/01/22 05:18:41;;;;;;;14.80;5.05;;;12.10;99.90;;;;;;5034119;28;20037;-72
2024/01/22 05:21:07;;;;;;;15.23;5.07;;;12.10;99.90;;;;;;5033827;28;20530;-73
2024/01/22 05:23:32;;;;;;;13.73;5.35;;;12.00;99.90;;;;;;5033788;28;20062;-70
2024/01/22 05:25:58;;;;;;;16.27;4.97;;;12.00;99.90;;;;;;5032663;28;20045;-69
2024/01/22 05:28:23;;;;;;;13.63;5.22;;;12.00;99.90;;;;;;5033995;28;20034;-73
2024/01/22 05:30:49;;;;;;;17.23;6.18;;;12.00;99.90;;;;;;5033957;28;20037;-73
2024/01/22 05:33:14;;;;;;;18.45;6.07;;;12.00;99.90;;;;;;5033938;28;20025;-71
2024/01/22 05:35:40;;;;;;;19.83;5.85;;;12.00;99.90;;;;;;5033804;28;20032;-70
2024/01/22 05:38:06;;;;;;;20.00;5.63;;;11.90;99.90;;;;;;5033858;28;20501;-72
2024/01/22 05:40:31;;;;;;;27.60;6.95;;;11.90;99.90;;;;;;5032433;28;20040;-69
2024/01/22 05:42:57;;;;;;;27.15;6.40;;;11.90;99.90;;;;;;5033695;28;20080;-72
2024/01/22 05:45:22;;;;;;;37.05;7.60;;;11.90;99.90;;;;;;5033555;28;20079;-70
2024/01/22 05:47:48;;;;;;;31.67;7.60;;;11.80;99.90;;;;;;5033847;28;20037;-72
2024/01/22 05:50:13;;;;;;;30.20;7.85;;;11.80;99.90;;;;;;5033528;28;20029;-73
2024/01/22 05:52:39;;;;;;;33.13;8.05;;;11.80;99.90;;;;;;5033471;28;20037;-71
2024/01/22 05:55:05;;;;;;;34.78;8.10;;;11.70;99.90;;;;;;5033700;28;20029;-70
2024/01/22 05:57:30;;;;;;;38.28;8.38;;;11.70;99.90;;;;;;5033343;28;20041;-70
2024/01/22 05:59:56;;;;;;;39.55;8.98;;;11.60;99.90;;;;;;5033403;28;20025;-72
2024/01/22 06:02:21;;;;;;;44.83;9.80;;;11.60;99.90;;;;;;5033464;28;20017;-72
2024/01/22 06:04:47;;;;;;;32.42;8.93;;;11.60;99.90;;;;;;5033569;28;20029;-71
2024/01/22 06:07:13;;;;;;;48.53;10.68;;;11.50;99.90;;;;;;5033255;28;20075;-71
2024/01/22 06:09:39;;;;;;;36.22;9.52;;;11.50;99.90;;;;;;5032931;28;20496;-71
2024/01/22 06:12:05;;;;;;;39.45;10.05;;;11.40;99.90;;;;;;5032832;28;20029;-72
2024/01/22 06:14:30;;;;;;;41.22;10.00;;;11.40;99.90;;;;;;5032512;28;20041;-69
2024/01/22 06:16:56;;;;;;;44.55;10.57;;;11.40;99.90;;;;;;5032324;28;20048;-73
2024/01/22 06:19:21;;;;;;;37.72;10.25;;;11.40;99.90;;;;;;5032952;28;20053;-70
2024/01/22 06:21:47;;;;;;;45.22;9.45;;;11.40;99.90;;;;;;5032801;28;20037;-72
2024/01/22 06:24:12;;;;;;;48.10;10.32;;;11.40;99.90;;;;;;5033212;28;20036;-70
2024/01/22 06:26:38;;;;;;;43.55;10.70;;;11.40;99.90;;;;;;5032479;28;20029;-69
2024/01/22 06:29:03;;;;;;;39.15;10.10;;;11.40;99.90;;;;;;5032647;28;20034;-71
2024/01/22 06:31:29;;;;;;;41.45;10.63;;;11.40;99.90;;;;;;5033068;28;20025;-69
2024/01/22 06:33:54;;;;;;;43.17;11.30;;;11.40;99.90;;;;;;5032987;28;20049;-72
2024/01/22 06:36:20;;;;;;;48.30;9.90;;;11.30;99.90;;;;;;5032344;28;20030;-70
2024/01/22 06:38:45;;;;;;;47.55;11.02;;;11.30;99.90;;;;;;5032414;28;20049;-72
2024/01/22 06:41:11;;;;;;;48.42;10.98;;;11.30;99.90;;;;;;5032745;28;20033;-69
2024/01/22 06:43:38;;;;;;;49.67;10.90;;;11.30;99.90;;;;;;5032667;28;20026;-72
2024/01/22 06:46:03;;;;;;;57.78;12.18;;;11.30;99.90;;;;;;5032597;28;20036;-70
2024/01/22 06:48:29;;;;;;;45.33;10.20;;;11.30;99.90;;;;;;5031396;28;20116;-71
2024/01/22 06:50:55;;;;;;;46.38;10.70;;;11.20;99.90;;;;;;5032452;28;20033;-73
2024/01/22 06:53:20;;;;;;;51.53;11.60;;;11.20;99.90;;;;;;5032568;28;20033;-71
2024/01/22 06:55:46;;;;;;;48.60;10.82;;;11.20;99.90;;;;;;5032407;28;20032;-70
2024/01/22 06:58:11;;;;;;;44.58;10.45;;;11.20;99.90;;;;;;5032634;28;20397;-72
2024/01/22 07:00:37;;;;;;;46.28;10.60;;;11.20;99.90;;;;;;5032780;28;20470;-70
2024/01/22 07:03:03;;;;;;;51.60;11.15;;;11.20;99.90;;;;;;5032643;28;20029;-69
2024/01/22 07:05:29;;;;;;;41.72;10.60;;;11.20;99.90;;;;;;5035010;28;20025;-69
2024/01/22 07:07:55;;;;;;;38.00;10.35;;;11.20;99.90;;;;;;5036801;28;20080;-68
2024/01/22 07:10:21;;;;;;;52.45;11.57;;;11.10;99.90;;;;;;5036082;28;20490;-70
2024/01/22 07:12:47;;;;;;;47.08;10.73;;;11.10;99.90;;;;;;5036503;28;20481;-69
2024/01/22 07:15:12;;;;;;;48.67;12.02;;;11.10;99.90;;;;;;5036472;28;20040;-70
2024/01/22 07:17:40;;;;;;;55.20;12.52;;;11.10;99.90;;;;;;5036353;28;20033;-69
2024/01/22 07:20:13;;;;;;;53.35;13.38;;;11.10;99.90;;;;;;5036618;28;20108;-72
2024/01/22 07:22:43;;;;;;;46.63;12.23;;;11.00;99.90;;;;;;5036416;28;20029;-74
2024/01/22 07:25:10;;;;;;;56.50;13.30;;;10.90;99.90;;;;;;5036174;28;20428;-70
2024/01/22 07:27:38;;;;;;;65.30;16.10;;;10.80;99.90;;;;;;5035674;28;20029;-72
2024/01/22 07:30:11;;;;;;;64.05;14.43;;;10.80;99.90;;;;;;5035891;28;20032;-72
2024/01/22 07:32:37;;;;;;;57.85;14.10;;;10.70;99.90;;;;;;5036149;28;20025;-74
2024/01/22 07:35:07;;;;;;;62.70;14.15;;;10.60;99.90;;;;;;5034820;28;20029;-72
2024/01/22 07:37:34;;;;;;;59.28;15.57;;;10.60;99.90;;;;;;5035777;28;20486;-72
2024/01/22 07:40:00;;;;;;;56.30;14.82;;;10.50;99.90;;;;;;5035978;28;20546;-75
2024/01/22 07:42:26;;;;;;;67.50;15.35;;;10.50;99.90;;;;;;5036000;28;20105;-72
2024/01/22 07:44:52;;;;;;;73.72;16.52;;;10.40;99.90;;;;;;5035956;28;20056;-74
2024/01/22 07:47:17;;;;;;;74.57;16.45;;;10.40;99.90;;;;;;5035536;28;20031;-74
2024/01/22 07:49:43;;;;;;;73.45;15.40;;;10.40;99.90;;;;;;5035756;28;20026;-72
2024/01/22 07:52:08;;;;;;;86.43;15.82;;;10.40;99.90;;;;;;5034233;28;20069;-72
2024/01/22 07:54:34;;;;;;;75.45;16.13;;;10.40;99.90;;;;;;5035743;28;20091;-71
2024/01/22 07:56:59;;;;;;;77.57;16.55;;;10.30;99.90;;;;;;5035591;28;20065;-75
2024/01/22 07:59:25;;;;;;;77.40;15.70;;;10.30;99.90;;;;;;5034997;28;20123;-75
2024/01/22 08:01:51;;;;;;;84.57;15.90;;;10.30;99.90;;;;;;5035650;28;20032;-75
2024/01/22 08:04:16;;;;;;;92.60;22.77;;;10.30;99.90;;;;;;5035825;28;20029;-72
2024/01/22 08:06:42;;;;;;;74.93;16.23;;;10.30;99.90;;;;;;5028148;28;20030;-72
2024/01/22 08:09:07;;;;;;;81.90;15.05;;;10.30;99.90;;;;;;5035104;28;20036;-73
2024/01/22 08:11:33;;;;;;;101.72;25.23;;;10.40;99.90;;;;;;5035365;28;20056;-74
2024/01/22 08:13:59;;;;;;;77.10;17.90;;;10.30;99.90;;;;;;5035429;28;20067;-70
2024/01/22 08:16:24;;;;;;;86.22;17.85;;;10.30;99.90;;;;;;5035332;28;20461;-71
2024/01/22 08:18:50;;;;;;;81.65;17.55;;;10.40;99.90;;;;;;5032626;28;20366;-72
2024/01/22 08:21:15;;;;;;;80.30;18.10;;;10.40;99.90;;;;;;5033399;28;20037;-75
2024/01/22 08:23:44;;;;;;;72.22;16.85;;;10.40;99.90;;;;;;5034371;28;20029;-74
2024/01/22 08:26:10;;;;;;;89.72;19.27;;;10.40;99.90;;;;;;5035148;28;20076;-74
2024/01/22 08:28:36;;;;;;;84.30;17.30;;;10.40;99.90;;;;;;5035127;28;20486;-71
2024/01/22 08:31:01;;;;;;;75.60;18.45;;;10.40;99.90;;;;;;5035051;28;20034;-75
2024/01/22 08:33:28;;;;;;;78.97;17.17;;;10.40;99.90;;;;;;5033865;28;20017;-74
2024/01/22 08:35:53;;;;;;;81.22;16.38;;;10.40;99.90;;;;;;5033897;28;20026;-74
2024/01/22 08:38:19;;;;;;;70.22;16.17;;;10.40;99.90;;;;;;5034337;28;20461;-74
2024/01/22 08:40:45;;;;;;;75.45;14.90;;;10.40;99.90;;;;;;5034200;28;20032;-71
2024/01/22 08:43:10;;;;;;;60.80;14.68;;;10.40;99.90;;;;;;5034443;28;20025;-72
2024/01/22 08:45:36;;;;;;;70.20;15.93;;;10.40;99.90;;;;;;5034170;28;20398;-73
2024/01/22 08:48:01;;;;;;;79.47;15.18;;;10.30;99.90;;;;;;5034528;28;20030;-75
2024/01/22 08:50:27;;;;;;;82.25;16.35;;;10.40;99.90;;;;;;5033060;28;20087;-71
2024/01/22 08:52:54;;;;;;;76.20;16.10;;;10.30;99.90;;;;;;5034063;28;20028;-74
2024/01/22 08:55:22;;;;;;;84.10;15.90;;;10.30;99.90;;;;;;5034241;28;20083;-71
2024/01/22 08:57:48;;;;;;;91.72;16.80;;;10.30;99.90;;;;;;5031664;28;20465;-69
2024/01/22 09:00:15;;;;;;;71.45;16.35;;;10.30;99.90;;;;;;5034120;28;20032;-71
2024/01/22 09:02:42;;;;;;;85.13;16.45;;;10.30;99.90;;;;;;5034535;28;20029;-72
2024/01/22 09:05:08;;;;;;;76.93;17.05;;;10.30;99.90;;;;;;5031111;28;20037;-70
2024/01/22 09:07:35;;;;;;;70.38;14.43;;;10.30;99.90;;;;;;5032429;28;20592;-71
2024/01/22 09:10:03;;;;;;;79.50;16.05;;;10.30;99.90;;;;;;5032769;28;20049;-72
2024/01/22 09:12:28;;;;;;;77.05;16.17;;;10.30;99.90;;;;;;5031320;28;20072;-73
2024/01/22 09:14:54;;;;;;;75.90;18.08;;;10.30;99.90;;;;;;5033735;28;20473;-72
2024/01/22 09:17:19;;;;;;;74.13;16.95;;;10.30;99.90;;;;;;5033486;28;20104;-71
2024/01/22 09:19:45;;;;;;;76.07;16.85;;;10.40;99.90;;;;;;5032151;28;20134;-72
2024/01/22 09:22:10;;;;;;;74.90;16.60;;;10.40;99.90;;;;;;5033512;28;20026;-72
2024/01/22 09:24:36;;;;;;;82.03;17.60;;;10.30;99.90;;;;;;5033598;28;20026;-70
2024/01/22 09:27:02;;;;;;;72.35;14.30;;;10.30;99.90;;;;;;5033067;28;20132;-69
2024/01/22 09:29:27;;;;;;;55.28;14.02;;;10.20;99.90;;;;;;5033648;28;20022;-69
2024/01/22 09:31:53;;;;;;;73.22;14.85;;;10.20;99.90;;;;;;5033374;28;20033;-74
2024/01/22 09:34:18;;;;;;;58.15;13.40;;;10.10;99.90;;;;;;5032871;28;20036;-73
2024/01/22 09:36:44;;;;;;;61.33;13.73;;;10.10;99.90;;;;;;5032960;28;20031;-72
2024/01/22 09:39:09;;;;;;;62.20;13.25;;;10.00;99.90;;;;;;5032209;28;20033;-72
2024/01/22 09:41:35;;;;;;;58.00;11.77;;;10.00;99.90;;;;;;5030165;28;20036;-72
2024/01/22 09:44:02;;;;;;;55.58;11.50;;;10.00;99.90;;;;;;5032603;28;20022;-71
2024/01/22 09:46:28;;;;;;;53.65;11.80;;;9.90;99.90;;;;;;5030298;28;20021;-70
2024/01/22 09:48:54;;;;;;;50.72;10.50;;;9.80;99.90;;;;;;5032842;28;20029;-72
2024/01/22 09:51:20;;;;;;;49.20;11.13;;;9.80;99.90;;;;;;5033155;28;20108;-71
2024/01/22 09:53:47;;;;;;;44.33;9.38;;;9.90;99.90;;;;;;5033322;28;20033;-74
2024/01/22 09:56:20;;;;;;;39.92;10.07;;;10.20;99.90;;;;;;5031568;28;20382;-70
2024/01/22 09:58:48;;;;;;;49.22;11.27;;;10.40;99.90;;;;;;5032936;28;20029;-71
2024/01/22 10:01:15;;;;;;;46.03;9.23;;;10.80;99.90;;;;;;5032893;28;20535;-73
2024/01/22 10:03:43;;;;;;;42.80;9.38;;;11.10;99.90;;;;;;5031996;28;20369;-73
2024/01/22 10:06:10;;;;;;;38.08;8.80;;;11.40;99.90;;;;;;5030133;28;20032;-74
2024/01/22 10:08:35;;;;;;;45.90;9.18;;;11.60;99.90;;;;;;5032704;28;20022;-71
2024/01/22 10:11:03;;;;;;;42.63;8.88;;;11.70;99.90;;;;;;5031699;28;20370;-69
2024/01/22 10:13:28;;;;;;;35.00;7.55;;;12.00;99.90;;;;;;5030108;28;20490;-73
2024/01/22 10:15:54;;;;;;;41.05;8.50;;;12.30;99.90;;;;;;5032577;28;20100;-71
2024/01/22 10:18:20;;;;;;;38.10;7.72;;;12.50;99.90;;;;;;5032236;28;20109;-73
2024/01/22 10:20:46;;;;;;;33.25;6.35;;;12.80;99.90;;;;;;5032596;28;20048;-73
2024/01/22 10:23:13;;;;;;;33.50;6.35;;;12.90;99.90;;;;;;5032680;28;20024;-74
2024/01/22 10:25:40;;;;;;;39.47;7.13;;;12.90;99.90;;;;;;5032584;28;20025;-73
2024/01/22 10:28:10;;;;;;;31.95;6.95;;;12.90;99.90;;;;;;5030531;28;20032;-73
2024/01/22 10:30:38;;;;;;;36.28;6.68;;;12.90;99.90;;;;;;5032012;28;20492;-73
2024/01/22 10:33:14;;;;;;;35.50;6.85;;;13.00;99.90;;;;;;5031975;28;20052;-70
2024/01/22 10:35:40;;;;;;;35.50;6.25;;;13.20;99.90;;;;;;5032144;28;20026;-73
2024/01/22 10:38:06;;;;;;;29.52;5.88;;;13.40;99.90;;;;;;5030307;28;20048;-74
2024/01/22 10:40:32;;;;;;;33.70;6.45;;;13.50;99.90;;;;;;5031447;28;20101;-71
2024/01/22 10:42:58;;;;;;;34.80;6.00;;;13.50;99.90;;;;;;5032047;28;20496;-71
2024/01/22 10:45:29;;;;;;;36.90;7.32;;;13.40;99.90;;;;;;5029293;28;20026;-69
2024/01/22 10:47:55;;;;;;;30.40;6.65;;;13.40;99.90;;;;;;5032117;28;20022;-71
2024/01/22 10:50:21;;;;;;;30.50;6.80;;;13.30;99.90;;;;;;5032731;28;20029;-73
2024/01/22 10:52:49;;;;;;;33.85;6.05;;;13.40;99.90;;;;;;5032843;28;20393;-73
2024/01/22 10:55:15;;;;;;;34.05;6.40;;;13.50;99.90;;;;;;5031834;28;20018;-70
2024/01/22 10:57:43;;;;;;;32.05;5.97;;;13.60;99.90;;;;;;5035012;28;20059;-72
2024/01/22 11:00:14;;;;;;;32.05;6.43;;;13.60;99.90;;;;;;5047204;28;20036;-72
2024/01/22 11:02:46;;;;;;;41.45;7.22;;;14.00;99.90;;;;;;5037253;28;20027;-71
2024/01/22 11:05:14;;;;;;;37.03;6.47;;;14.20;99.90;;;;;;5042887;28;20104;-70
2024/01/22 11:07:41;;;;;;;35.50;7.05;;;14.00;99.90;;;;;;5043511;28;20036;-70
2024/01/22 11:10:09;;;;;;;38.88;10.60;;;14.10;99.90;;;;;;5045126;28;20050;-69
2024/01/22 11:13:01;;;;;;;35.08;7.00;;;14.30;99.90;;;;;;5047326;28;20029;-70
2024/01/22 11:15:27;;;;;;;34.25;6.47;;;14.80;99.90;;;;;;5042988;28;20041;-70
2024/01/22 11:17:54;;;;;;;27.65;5.65;;;14.60;99.90;;;;;;5036996;28;20378;-72
2024/01/22 11:20:23;;;;;;;31.65;6.80;;;14.60;99.90;;;;;;5048439;28;20025;-72
2024/01/22 11:23:01;;;;;;;35.20;7.00;;;14.60;99.90;;;;;;5038711;28;20504;-69
2024/01/22 11:25:31;;;;;;;34.92;6.63;;;14.50;99.90;;;;;;5040281;28;20025;-72
2024/01/22 11:28:09;;;;;;;28.83;6.03;;;14.30;99.90;;;;;;5047709;28;20030;-73
2024/01/22 11:30:37;;;;;;;29.92;6.55;;;14.50;99.90;;;;;;5021294;28;20024;-72
2024/01/22 11:33:22;;;;;;;31.73;5.45;;;14.40;99.90;;;;;;5043327;28;20060;-70
2024/01/22 11:35:48;;;;;;;32.88;6.47;;;14.30;99.90;;;;;;5045177;28;20385;-69
2024/01/22 11:38:14;;;;;;;31.67;5.15;;;14.20;99.90;;;;;;5034801;28;20049;-71
2024/01/22 11:40:55;;;;;;;28.65;5.90;;;14.20;99.90;;;;;;5046509;28;20045;-72
2024/01/22 11:43:23;;;;;;;38.03;5.80;;;14.00;99.90;;;;;;5042712;28;20025;-71
2024/01/22 11:45:53;;;;;;;32.70;5.13;;;13.80;99.90;;;;;;5036766;28;20798;-71
2024/01/22 11:48:24;;;;;;;30.88;5.75;;;13.90;99.90;;;;;;5048416;28;20534;-74
2024/01/22 11:51:05;;;;;;;36.80;6.38;;;14.00;99.90;;;;;;5040571;28;20059;-69
2024/01/22 11:53:31;;;;;;;28.70;6.65;;;14.00;99.90;;;;;;5043294;28;20470;-72
2024/01/22 11:56:04;;;;;;;30.23;5.90;;;13.80;99.90;;;;;;5050889;28;20066;-69
2024/01/22 11:58:31;;;;;;;28.80;6.03;;;14.00;99.90;;;;;;5023246;28;20080;-69
2024/01/22 12:00:58;;;;;;;35.50;6.90;;;13.80;99.90;;;;;;5047118;28;20148;-69
2024/01/22 12:03:28;;;;;;;36.05;5.78;;;13.60;99.90;;;;;;5046472;28;20032;-72
2024/01/22 12:06:02;;;;;;;31.08;6.50;;;13.60;99.90;;;;;;5040098;28;20029;-70
2024/01/22 12:08:28;;;;;;;39.00;6.90;;;13.60;99.90;;;;;;5021020;28;20025;-69
2024/01/22 12:11:06;;;;;;;33.90;6.25;;;13.70;99.90;;;;;;5048559;28;20037;-70
2024/01/22 12:13:32;;;;;;;35.90;6.43;;;13.50;99.90;;;;;;5041350;28;20037;-70
2024/01/22 12:15:57;;;;;;;37.40;7.05;;;13.50;99.90;;;;;;5035231;28;20055;-70
2024/01/22 12:18:24;;;;;;;37.80;6.82;;;13.40;99.90;;;;;;5051399;28;20094;-70
2024/01/22 12:20:50;;;;;;;32.85;6.50;;;13.50;99.90;;;;;;5041398;28;20044;-70
2024/01/22 12:23:28;;;;;;;31.98;5.47;;;13.60;99.90;;;;;;5044105;28;20029;-70
2024/01/22 12:25:54;;;;;;;29.42;6.07;;;13.50;99.90;;;;;;5036230;28;20091;-69
2024/01/22 12:28:19;;;;;;;32.53;6.00;;;13.20;99.90;;;;;;5036892;28;20460;-70
2024/01/22 12:30:45;;;;;;;32.30;6.15;;;13.30;99.90;;;;;;5040204;28;20075;-70
2024/01/22 12:33:20;;;;;;;31.02;7.00;;;13.20;99.90;;;;;;5044836;28;20029;-70